sensor_id;sensor_type;location;lat;lon;timestamp;P1;durP1;ratioP1;P2;durP2;ratioP2
4001;SDS011;2015;48.670;9.060;2022-12-18T00:02:30;27.07;;;15.97;;
4001;SDS011;2015;48.670;9.060;2022-12-18T00:05:02;23.90;;;15.57;;
4001;SDS011;2015;48.670;9.060;2022-12-18T00:07:34;37.47;;;19.27;;
4001;SDS011;2015;48.670;9.060;2022-12-18T00:10:07;28.77;;;19.10;;
4001;SDS011;2015;48.670;9.060;2022-12-18T00:12:39;38.23;;;19.37;;
4001;SDS011;2015;48.670;9.060;2022-12-18T00:15:10;44.30;;;21.40;;
4001;SDS011;2015;48.670;9.060;2022-12-18T00:17:42;40.17;;;23.67;;
4001;SDS011;2015;48.670;9.060;2022-12-18T00:20:14;34.97;;;20.00;;
4001;SDS011;2015;48.670;9.060;2022-12-18T00:22:46;42.50;;;16.60;;
4001;SDS011;2015;48.670;9.060;2022-12-18T00:25:18;25.00;;;16.87;;
4001;SDS011;2015;48.670;9.060;2022-12-18T00:27:49;38.00;;;16.60;;
4001;SDS011;2015;48.670;9.060;2022-12-18T00:30:21;23.30;;;15.47;;
4001;SDS011;2015;48.670;9.060;2022-12-18T00:32:53;44.17;;;22.77;;
4001;SDS011;2015;48.670;9.060;2022-12-18T00:35:25;33.67;;;18.10;;
4001;SDS011;2015;48.670;9.060;2022-12-18T00:37:56;45.83;;;25.67;;
4001;SDS011;2015;48.670;9.060;2022-12-18T00:40:28;58.47;;;28.07;;
4001;SDS011;2015;48.670;9.060;2022-12-18T00:43:00;63.83;;;28.60;;
4001;SDS011;2015;48.670;9.060;2022-12-18T00:45:32;66.00;;;29.40;;
4001;SDS011;2015;48.670;9.060;2022-12-18T00:48:03;49.60;;;28.40;;
4001;SDS011;2015;48.670;9.060;2022-12-18T00:50:35;56.57;;;27.90;;
4001;SDS011;2015;48.670;9.060;2022-12-18T00:53:07;79.95;;;38.05;;
4001;SDS011;2015;48.670;9.060;2022-12-18T00:55:39;64.97;;;33.20;;
4001;SDS011;2015;48.670;9.060;2022-12-18T00:58:14;38.73;;;22.83;;
4001;SDS011;2015;48.670;9.060;2022-12-18T01:00:48;37.47;;;20.03;;
4001;SDS011;2015;48.670;9.060;2022-12-18T01:03:21;42.10;;;23.77;;
4001;SDS011;2015;48.670;9.060;2022-12-18T01:05:52;30.67;;;20.50;;
4001;SDS011;2015;48.670;9.060;2022-12-18T01:08:24;44.67;;;21.23;;
4001;SDS011;2015;48.670;9.060;2022-12-18T01:10:56;39.60;;;20.37;;
4001;SDS011;2015;48.670;9.060;2022-12-18T01:13:28;29.53;;;19.27;;
4001;SDS011;2015;48.670;9.060;2022-12-18T01:15:59;33.30;;;18.53;;
4001;SDS011;2015;48.670;9.060;2022-12-18T01:18:31;39.53;;;18.40;;
4001;SDS011;2015;48.670;9.060;2022-12-18T01:21:07;44.87;;;17.90;;
4001;SDS011;2015;48.670;9.060;2022-12-18T01:23:40;59.20;;;26.97;;
4001;SDS011;2015;48.670;9.060;2022-12-18T01:26:14;61.93;;;30.77;;
4001;SDS011;2015;48.670;9.060;2022-12-18T01:28:47;66.27;;;31.70;;
4001;SDS011;2015;48.670;9.060;2022-12-18T01:31:20;44.70;;;24.57;;
4001;SDS011;2015;48.670;9.060;2022-12-18T01:33:57;34.30;;;18.07;;
4001;SDS011;2015;48.670;9.060;2022-12-18T01:36:33;38.93;;;18.20;;
4001;SDS011;2015;48.670;9.060;2022-12-18T01:39:09;37.13;;;19.47;;
4001;SDS011;2015;48.670;9.060;2022-12-18T01:41:43;23.13;;;16.20;;
4001;SDS011;2015;48.670;9.060;2022-12-18T01:47:47;25.90;;;14.43;;
4001;SDS011;2015;48.670;9.060;2022-12-18T01:53:11;39.40;;;16.87;;
4001;SDS011;2015;48.670;9.060;2022-12-18T01:58:24;28.27;;;15.67;;
4001;SDS011;2015;48.670;9.060;2022-12-18T02:01:20;31.27;;;16.03;;
4001;SDS011;2015;48.670;9.060;2022-12-18T02:03:53;30.77;;;18.17;;
4001;SDS011;2015;48.670;9.060;2022-12-18T02:06:29;36.10;;;20.10;;
4001;SDS011;2015;48.670;9.060;2022-12-18T02:28:55;27.77;;;15.97;;
4001;SDS011;2015;48.670;9.060;2022-12-18T02:31:34;22.13;;;15.23;;
4001;SDS011;2015;48.670;9.060;2022-12-18T02:34:10;33.80;;;17.70;;
4001;SDS011;2015;48.670;9.060;2022-12-18T02:36:43;28.47;;;18.33;;
4001;SDS011;2015;48.670;9.060;2022-12-18T02:39:17;35.03;;;17.10;;
4001;SDS011;2015;48.670;9.060;2022-12-18T02:41:52;49.78;;;25.58;;
4001;SDS011;2015;48.670;9.060;2022-12-18T02:44:24;40.57;;;22.13;;
4001;SDS011;2015;48.670;9.060;2022-12-18T02:46:56;45.27;;;20.00;;
4001;SDS011;2015;48.670;9.060;2022-12-18T03:00:18;28.50;;;18.53;;
4001;SDS011;2015;48.670;9.060;2022-12-18T03:03:14;30.93;;;18.40;;
4001;SDS011;2015;48.670;9.060;2022-12-18T03:06:00;36.73;;;18.27;;
4001;SDS011;2015;48.670;9.060;2022-12-18T03:08:38;40.17;;;17.47;;
4001;SDS011;2015;48.670;9.060;2022-12-18T03:11:13;39.90;;;18.10;;
4001;SDS011;2015;48.670;9.060;2022-12-18T03:13:50;29.73;;;17.73;;
4001;SDS011;2015;48.670;9.060;2022-12-18T03:16:27;47.30;;;21.10;;
4001;SDS011;2015;48.670;9.060;2022-12-18T03:19:03;41.57;;;19.40;;
4001;SDS011;2015;48.670;9.060;2022-12-18T03:21:43;34.83;;;17.00;;
4001;SDS011;2015;48.670;9.060;2022-12-18T03:24:28;35.07;;;17.13;;
4001;SDS011;2015;48.670;9.060;2022-12-18T03:27:02;38.30;;;18.17;;
4001;SDS011;2015;48.670;9.060;2022-12-18T03:29:40;33.70;;;19.53;;
4001;SDS011;2015;48.670;9.060;2022-12-18T03:32:21;25.43;;;15.63;;
4001;SDS011;2015;48.670;9.060;2022-12-18T03:34:59;43.00;;;23.48;;
4001;SDS011;2015;48.670;9.060;2022-12-18T03:37:35;47.23;;;20.97;;
4001;SDS011;2015;48.670;9.060;2022-12-18T03:40:08;30.27;;;19.17;;
4001;SDS011;2015;48.670;9.060;2022-12-18T03:42:48;29.70;;;15.70;;
4001;SDS011;2015;48.670;9.060;2022-12-18T03:45:27;23.43;;;14.70;;
4001;SDS011;2015;48.670;9.060;2022-12-18T03:48:07;27.53;;;16.90;;
4001;SDS011;2015;48.670;9.060;2022-12-18T03:50:46;25.80;;;17.10;;
4001;SDS011;2015;48.670;9.060;2022-12-18T03:56:20;31.90;;;14.10;;
4001;SDS011;2015;48.670;9.060;2022-12-18T03:58:54;28.80;;;16.13;;
4001;SDS011;2015;48.670;9.060;2022-12-18T04:01:30;38.43;;;16.27;;
4001;SDS011;2015;48.670;9.060;2022-12-18T04:04:05;29.13;;;17.70;;
4001;SDS011;2015;48.670;9.060;2022-12-18T04:06:39;27.43;;;15.97;;
4001;SDS011;2015;48.670;9.060;2022-12-18T04:09:13;29.67;;;15.37;;
4001;SDS011;2015;48.670;9.060;2022-12-18T04:11:45;35.53;;;17.33;;
4001;SDS011;2015;48.670;9.060;2022-12-18T04:14:18;29.63;;;17.80;;
4001;SDS011;2015;48.670;9.060;2022-12-18T04:16:50;27.43;;;15.80;;
4001;SDS011;2015;48.670;9.060;2022-12-18T04:19:21;25.07;;;15.43;;
4001;SDS011;2015;48.670;9.060;2022-12-18T04:21:53;23.70;;;14.37;;
4001;SDS011;2015;48.670;9.060;2022-12-18T04:24:25;30.20;;;16.63;;
4001;SDS011;2015;48.670;9.060;2022-12-18T04:26:57;33.30;;;15.37;;
4001;SDS011;2015;48.670;9.060;2022-12-18T04:29:29;35.78;;;20.77;;
4001;SDS011;2015;48.670;9.060;2022-12-18T04:32:01;28.20;;;15.60;;
4001;SDS011;2015;48.670;9.060;2022-12-18T04:34:33;29.43;;;15.50;;
4001;SDS011;2015;48.670;9.060;2022-12-18T04:37:04;27.50;;;15.20;;
4001;SDS011;2015;48.670;9.060;2022-12-18T04:39:36;27.97;;;15.87;;
4001;SDS011;2015;48.670;9.060;2022-12-18T04:42:08;29.43;;;15.07;;
4001;SDS011;2015;48.670;9.060;2022-12-18T04:44:39;25.17;;;14.63;;
4001;SDS011;2015;48.670;9.060;2022-12-18T04:47:11;21.00;;;12.70;;
4001;SDS011;2015;48.670;9.060;2022-12-18T04:49:43;23.53;;;15.60;;
4001;SDS011;2015;48.670;9.060;2022-12-18T04:52:15;28.87;;;16.20;;
4001;SDS011;2015;48.670;9.060;2022-12-18T04:54:47;24.90;;;14.30;;
4001;SDS011;2015;48.670;9.060;2022-12-18T04:57:18;29.80;;;15.80;;
4001;SDS011;2015;48.670;9.060;2022-12-18T04:59:50;27.90;;;15.10;;
4001;SDS011;2015;48.670;9.060;2022-12-18T05:02:22;25.42;;;16.50;;
4001;SDS011;2015;48.670;9.060;2022-12-18T05:04:54;29.60;;;16.00;;
4001;SDS011;2015;48.670;9.060;2022-12-18T05:07:25;23.60;;;13.27;;
4001;SDS011;2015;48.670;9.060;2022-12-18T05:09:57;21.73;;;13.50;;
4001;SDS011;2015;48.670;9.060;2022-12-18T05:12:30;25.70;;;16.67;;
4001;SDS011;2015;48.670;9.060;2022-12-18T05:15:02;20.97;;;13.53;;
4001;SDS011;2015;48.670;9.060;2022-12-18T05:17:34;31.03;;;16.93;;
4001;SDS011;2015;48.670;9.060;2022-12-18T05:20:06;27.73;;;14.50;;
4001;SDS011;2015;48.670;9.060;2022-12-18T05:22:38;26.55;;;15.82;;
4001;SDS011;2015;48.670;9.060;2022-12-18T05:25:10;24.60;;;15.40;;
4001;SDS011;2015;48.670;9.060;2022-12-18T05:27:41;21.70;;;13.93;;
4001;SDS011;2015;48.670;9.060;2022-12-18T05:30:13;28.67;;;15.73;;
4001;SDS011;2015;48.670;9.060;2022-12-18T05:32:46;24.10;;;13.53;;
4001;SDS011;2015;48.670;9.060;2022-12-18T05:35:18;23.27;;;12.97;;
4001;SDS011;2015;48.670;9.060;2022-12-18T05:37:49;19.53;;;12.83;;
4001;SDS011;2015;48.670;9.060;2022-12-18T05:40:21;24.57;;;13.17;;
4001;SDS011;2015;48.670;9.060;2022-12-18T05:42:53;25.20;;;13.50;;
4001;SDS011;2015;48.670;9.060;2022-12-18T05:45:25;22.87;;;12.20;;
4001;SDS011;2015;48.670;9.060;2022-12-18T05:47:56;23.43;;;14.70;;
4001;SDS011;2015;48.670;9.060;2022-12-18T05:50:28;30.93;;;15.37;;
4001;SDS011;2015;48.670;9.060;2022-12-18T05:53:00;30.20;;;15.13;;
4001;SDS011;2015;48.670;9.060;2022-12-18T05:55:35;37.22;;;15.63;;
4001;SDS011;2015;48.670;9.060;2022-12-18T05:58:08;18.40;;;14.07;;
4001;SDS011;2015;48.670;9.060;2022-12-18T06:00:42;23.50;;;13.77;;
4001;SDS011;2015;48.670;9.060;2022-12-18T06:03:16;21.70;;;12.97;;
4001;SDS011;2015;48.670;9.060;2022-12-18T06:05:48;31.30;;;13.37;;
4001;SDS011;2015;48.670;9.060;2022-12-18T06:08:19;20.30;;;11.87;;
4001;SDS011;2015;48.670;9.060;2022-12-18T06:10:51;23.43;;;13.37;;
4001;SDS011;2015;48.670;9.060;2022-12-18T06:13:23;20.97;;;13.20;;
4001;SDS011;2015;48.670;9.060;2022-12-18T06:15:55;14.47;;;12.20;;
4001;SDS011;2015;48.670;9.060;2022-12-18T06:18:27;21.83;;;13.40;;
4001;SDS011;2015;48.670;9.060;2022-12-18T06:20:59;20.37;;;10.87;;
4001;SDS011;2015;48.670;9.060;2022-12-18T06:23:31;27.10;;;14.90;;
4001;SDS011;2015;48.670;9.060;2022-12-18T06:26:04;21.80;;;14.47;;
4001;SDS011;2015;48.670;9.060;2022-12-18T06:28:36;18.97;;;13.90;;
4001;SDS011;2015;48.670;9.060;2022-12-18T06:31:08;20.07;;;11.10;;
4001;SDS011;2015;48.670;9.060;2022-12-18T06:33:40;25.47;;;13.80;;
4001;SDS011;2015;48.670;9.060;2022-12-18T06:36:13;28.60;;;14.73;;
4001;SDS011;2015;48.670;9.060;2022-12-18T06:38:45;22.50;;;13.20;;
4001;SDS011;2015;48.670;9.060;2022-12-18T06:41:19;26.67;;;14.30;;
4001;SDS011;2015;48.670;9.060;2022-12-18T06:43:52;13.60;;;11.60;;
4001;SDS011;2015;48.670;9.060;2022-12-18T06:46:29;35.67;;;13.87;;
4001;SDS011;2015;48.670;9.060;2022-12-18T06:49:01;15.93;;;12.97;;
4001;SDS011;2015;48.670;9.060;2022-12-18T06:51:33;30.50;;;17.67;;
4001;SDS011;2015;48.670;9.060;2022-12-18T06:54:05;32.93;;;16.53;;
4001;SDS011;2015;48.670;9.060;2022-12-18T06:56:36;27.57;;;15.30;;
4001;SDS011;2015;48.670;9.060;2022-12-18T06:59:08;33.97;;;16.50;;
4001;SDS011;2015;48.670;9.060;2022-12-18T07:01:40;19.23;;;12.60;;
4001;SDS011;2015;48.670;9.060;2022-12-18T07:04:12;21.90;;;12.50;;
4001;SDS011;2015;48.670;9.060;2022-12-18T07:06:44;26.97;;;13.77;;
4001;SDS011;2015;48.670;9.060;2022-12-18T07:09:15;22.13;;;12.07;;
4001;SDS011;2015;48.670;9.060;2022-12-18T07:11:47;24.35;;;14.32;;
4001;SDS011;2015;48.670;9.060;2022-12-18T07:14:19;31.00;;;15.00;;
4001;SDS011;2015;48.670;9.060;2022-12-18T07:16:50;33.87;;;14.30;;
4001;SDS011;2015;48.670;9.060;2022-12-18T07:19:23;25.83;;;11.63;;
4001;SDS011;2015;48.670;9.060;2022-12-18T07:21:54;26.87;;;15.50;;
4001;SDS011;2015;48.670;9.060;2022-12-18T07:24:26;20.37;;;15.90;;
4001;SDS011;2015;48.670;9.060;2022-12-18T07:26:58;23.00;;;12.97;;
4001;SDS011;2015;48.670;9.060;2022-12-18T07:29:29;18.03;;;12.00;;
4001;SDS011;2015;48.670;9.060;2022-12-18T07:32:01;28.63;;;14.43;;
4001;SDS011;2015;48.670;9.060;2022-12-18T07:34:34;15.67;;;9.67;;
4001;SDS011;2015;48.670;9.060;2022-12-18T07:37:06;22.73;;;12.57;;
4001;SDS011;2015;48.670;9.060;2022-12-18T07:39:38;22.20;;;12.67;;
4001;SDS011;2015;48.670;9.060;2022-12-18T07:42:10;24.47;;;14.20;;
4001;SDS011;2015;48.670;9.060;2022-12-18T07:45:00;24.43;;;12.77;;
4001;SDS011;2015;48.670;9.060;2022-12-18T07:47:36;21.37;;;11.70;;
4001;SDS011;2015;48.670;9.060;2022-12-18T07:50:08;25.20;;;11.40;;
4001;SDS011;2015;48.670;9.060;2022-12-18T07:52:39;25.00;;;14.77;;
4001;SDS011;2015;48.670;9.060;2022-12-18T07:55:11;19.97;;;12.00;;
4001;SDS011;2015;48.670;9.060;2022-12-18T07:57:43;14.63;;;11.70;;
4001;SDS011;2015;48.670;9.060;2022-12-18T08:00:28;22.53;;;12.70;;
4001;SDS011;2015;48.670;9.060;2022-12-18T08:02:59;24.17;;;12.57;;
4001;SDS011;2015;48.670;9.060;2022-12-18T08:05:32;20.33;;;11.32;;
4001;SDS011;2015;48.670;9.060;2022-12-18T08:08:03;19.37;;;12.77;;
4001;SDS011;2015;48.670;9.060;2022-12-18T08:10:35;22.13;;;14.33;;
4001;SDS011;2015;48.670;9.060;2022-12-18T08:13:08;17.83;;;11.90;;
4001;SDS011;2015;48.670;9.060;2022-12-18T08:15:40;23.57;;;13.00;;
4001;SDS011;2015;48.670;9.060;2022-12-18T08:18:11;22.03;;;12.63;;
4001;SDS011;2015;48.670;9.060;2022-12-18T08:20:44;21.70;;;12.77;;
4001;SDS011;2015;48.670;9.060;2022-12-18T08:23:16;27.57;;;15.60;;
4001;SDS011;2015;48.670;9.060;2022-12-18T08:25:48;21.80;;;12.43;;
4001;SDS011;2015;48.670;9.060;2022-12-18T08:28:21;18.53;;;11.93;;
4001;SDS011;2015;48.670;9.060;2022-12-18T08:30:52;21.77;;;12.70;;
4001;SDS011;2015;48.670;9.060;2022-12-18T08:33:25;26.47;;;15.37;;
4001;SDS011;2015;48.670;9.060;2022-12-18T08:36:00;31.07;;;16.17;;
4001;SDS011;2015;48.670;9.060;2022-12-18T08:38:33;26.30;;;13.97;;
4001;SDS011;2015;48.670;9.060;2022-12-18T08:41:05;34.78;;;19.48;;
4001;SDS011;2015;48.670;9.060;2022-12-18T08:43:40;43.07;;;25.27;;
4001;SDS011;2015;48.670;9.060;2022-12-18T08:46:34;45.03;;;28.57;;
4001;SDS011;2015;48.670;9.060;2022-12-18T08:49:08;60.97;;;33.00;;
4001;SDS011;2015;48.670;9.060;2022-12-18T08:51:41;83.47;;;39.37;;
4001;SDS011;2015;48.670;9.060;2022-12-18T08:54:13;64.37;;;35.70;;
4001;SDS011;2015;48.670;9.060;2022-12-18T08:56:45;57.33;;;32.10;;
4001;SDS011;2015;48.670;9.060;2022-12-18T08:59:17;54.70;;;34.07;;
4001;SDS011;2015;48.670;9.060;2022-12-18T09:01:53;84.72;;;47.85;;
4001;SDS011;2015;48.670;9.060;2022-12-18T09:04:26;75.17;;;38.77;;
4001;SDS011;2015;48.670;9.060;2022-12-18T09:06:58;67.37;;;37.37;;
4001;SDS011;2015;48.670;9.060;2022-12-18T09:09:30;55.93;;;32.83;;
4001;SDS011;2015;48.670;9.060;2022-12-18T09:12:01;59.77;;;31.80;;
4001;SDS011;2015;48.670;9.060;2022-12-18T09:14:33;60.40;;;29.00;;
4001;SDS011;2015;48.670;9.060;2022-12-18T09:17:05;59.17;;;34.40;;
4001;SDS011;2015;48.670;9.060;2022-12-18T09:19:37;60.03;;;32.00;;
4001;SDS011;2015;48.670;9.060;2022-12-18T09:22:09;58.07;;;34.03;;
4001;SDS011;2015;48.670;9.060;2022-12-18T09:24:41;60.70;;;31.10;;
4001;SDS011;2015;48.670;9.060;2022-12-18T09:27:13;43.10;;;27.83;;
4001;SDS011;2015;48.670;9.060;2022-12-18T09:29:44;52.37;;;28.37;;
4001;SDS011;2015;48.670;9.060;2022-12-18T09:32:16;50.73;;;28.03;;
4001;SDS011;2015;48.670;9.060;2022-12-18T09:34:52;49.93;;;33.13;;
4001;SDS011;2015;48.670;9.060;2022-12-18T09:37:24;51.90;;;33.00;;
4001;SDS011;2015;48.670;9.060;2022-12-18T09:39:56;50.37;;;32.57;;
4001;SDS011;2015;48.670;9.060;2022-12-18T09:42:28;48.10;;;34.23;;
4001;SDS011;2015;48.670;9.060;2022-12-18T09:44:59;56.07;;;34.53;;
4001;SDS011;2015;48.670;9.060;2022-12-18T09:47:35;51.63;;;34.90;;
4001;SDS011;2015;48.670;9.060;2022-12-18T09:50:23;44.90;;;31.17;;
4001;SDS011;2015;48.670;9.060;2022-12-18T09:53:05;45.57;;;31.20;;
4001;SDS011;2015;48.670;9.060;2022-12-18T09:55:42;44.97;;;30.57;;
4001;SDS011;2015;48.670;9.060;2022-12-18T09:58:24;47.67;;;30.40;;
4001;SDS011;2015;48.670;9.060;2022-12-18T10:01:11;46.50;;;31.83;;
4001;SDS011;2015;48.670;9.060;2022-12-18T10:03:45;44.60;;;29.00;;
4001;SDS011;2015;48.670;9.060;2022-12-18T10:18:03;45.40;;;29.87;;
4001;SDS011;2015;48.670;9.060;2022-12-18T10:21:09;50.40;;;29.27;;
4001;SDS011;2015;48.670;9.060;2022-12-18T10:27:21;45.40;;;25.03;;
4001;SDS011;2015;48.670;9.060;2022-12-18T10:29:57;47.83;;;25.70;;
4001;SDS011;2015;48.670;9.060;2022-12-18T10:32:30;49.30;;;26.17;;
4001;SDS011;2015;48.670;9.060;2022-12-18T10:35:02;41.33;;;26.27;;
4001;SDS011;2015;48.670;9.060;2022-12-18T10:37:34;46.97;;;27.33;;
4001;SDS011;2015;48.670;9.060;2022-12-18T10:45:41;41.87;;;24.77;;
4001;SDS011;2015;48.670;9.060;2022-12-18T10:48:28;36.93;;;21.07;;
4001;SDS011;2015;48.670;9.060;2022-12-18T10:51:01;47.63;;;26.20;;
4001;SDS011;2015;48.670;9.060;2022-12-18T10:53:44;41.20;;;24.50;;
4001;SDS011;2015;48.670;9.060;2022-12-18T10:56:26;57.53;;;28.33;;
4001;SDS011;2015;48.670;9.060;2022-12-18T10:59:04;56.90;;;32.25;;
4001;SDS011;2015;48.670;9.060;2022-12-18T11:04:24;48.60;;;28.37;;
4001;SDS011;2015;48.670;9.060;2022-12-18T11:06:59;51.27;;;27.40;;
4001;SDS011;2015;48.670;9.060;2022-12-18T11:09:39;38.17;;;22.20;;
4001;SDS011;2015;48.670;9.060;2022-12-18T11:12:15;50.47;;;26.57;;
4001;SDS011;2015;48.670;9.060;2022-12-18T11:14:53;49.10;;;28.50;;
4001;SDS011;2015;48.670;9.060;2022-12-18T11:20:04;52.40;;;27.23;;
4001;SDS011;2015;48.670;9.060;2022-12-18T11:22:38;38.30;;;23.60;;
4001;SDS011;2015;48.670;9.060;2022-12-18T11:28:04;44.87;;;21.53;;
4001;SDS011;2015;48.670;9.060;2022-12-18T11:34:01;33.57;;;20.07;;
4001;SDS011;2015;48.670;9.060;2022-12-18T11:36:54;43.73;;;22.60;;
4001;SDS011;2015;48.670;9.060;2022-12-18T11:45:00;40.80;;;21.97;;
4001;SDS011;2015;48.670;9.060;2022-12-18T11:48:04;37.03;;;20.00;;
4001;SDS011;2015;48.670;9.060;2022-12-18T11:50:48;38.73;;;20.57;;
4001;SDS011;2015;48.670;9.060;2022-12-18T11:53:22;39.40;;;19.67;;
4001;SDS011;2015;48.670;9.060;2022-12-18T12:09:53;43.13;;;20.47;;
4001;SDS011;2015;48.670;9.060;2022-12-18T12:27:32;37.87;;;20.43;;
4001;SDS011;2015;48.670;9.060;2022-12-18T12:30:22;48.07;;;22.00;;
4001;SDS011;2015;48.670;9.060;2022-12-18T12:33:08;47.27;;;24.70;;
4001;SDS011;2015;48.670;9.060;2022-12-18T12:35:52;46.38;;;23.70;;
4001;SDS011;2015;48.670;9.060;2022-12-18T12:38:34;39.53;;;21.80;;
4001;SDS011;2015;48.670;9.060;2022-12-18T12:41:23;47.40;;;23.03;;
4001;SDS011;2015;48.670;9.060;2022-12-18T12:44:23;44.83;;;22.77;;
4001;SDS011;2015;48.670;9.060;2022-12-18T12:47:04;39.47;;;22.03;;
4001;SDS011;2015;48.670;9.060;2022-12-18T12:49:49;42.73;;;21.00;;
4001;SDS011;2015;48.670;9.060;2022-12-18T12:55:07;45.47;;;19.40;;
4001;SDS011;2015;48.670;9.060;2022-12-18T12:57:57;42.63;;;23.27;;
4001;SDS011;2015;48.670;9.060;2022-12-18T13:00:31;40.27;;;21.73;;
4001;SDS011;2015;48.670;9.060;2022-12-18T13:03:27;39.27;;;21.43;;
4001;SDS011;2015;48.670;9.060;2022-12-18T13:06:16;42.10;;;21.60;;
4001;SDS011;2015;48.670;9.060;2022-12-18T13:09:04;45.30;;;24.73;;
4001;SDS011;2015;48.670;9.060;2022-12-18T13:11:43;38.37;;;21.87;;
4001;SDS011;2015;48.670;9.060;2022-12-18T13:14:39;42.50;;;23.50;;
4001;SDS011;2015;48.670;9.060;2022-12-18T13:17:24;38.83;;;21.30;;
4001;SDS011;2015;48.670;9.060;2022-12-18T13:20:10;48.33;;;23.50;;
4001;SDS011;2015;48.670;9.060;2022-12-18T13:22:47;42.63;;;23.10;;
4001;SDS011;2015;48.670;9.060;2022-12-18T13:43:23;45.23;;;22.80;;
4001;SDS011;2015;48.670;9.060;2022-12-18T13:52:28;44.60;;;22.60;;
4001;SDS011;2015;48.670;9.060;2022-12-18T13:55:06;53.57;;;24.90;;
4001;SDS011;2015;48.670;9.060;2022-12-18T13:57:47;48.47;;;25.93;;
4001;SDS011;2015;48.670;9.060;2022-12-18T14:00:23;49.40;;;25.80;;
4001;SDS011;2015;48.670;9.060;2022-12-18T14:02:59;44.20;;;26.53;;
4001;SDS011;2015;48.670;9.060;2022-12-18T14:05:33;53.77;;;27.17;;
4001;SDS011;2015;48.670;9.060;2022-12-18T14:08:10;55.27;;;26.13;;
4001;SDS011;2015;48.670;9.060;2022-12-18T14:10:47;51.03;;;27.37;;
4001;SDS011;2015;48.670;9.060;2022-12-18T14:13:24;51.08;;;24.63;;
4001;SDS011;2015;48.670;9.060;2022-12-18T14:16:00;50.60;;;25.23;;
4001;SDS011;2015;48.670;9.060;2022-12-18T14:18:54;49.37;;;26.63;;
4001;SDS011;2015;48.670;9.060;2022-12-18T14:21:46;58.13;;;28.00;;
4001;SDS011;2015;48.670;9.060;2022-12-18T14:24:20;48.00;;;27.77;;
4001;SDS011;2015;48.670;9.060;2022-12-18T14:26:52;52.87;;;25.30;;
4001;SDS011;2015;48.670;9.060;2022-12-18T14:29:25;44.40;;;24.95;;
4001;SDS011;2015;48.670;9.060;2022-12-18T14:32:15;54.07;;;26.43;;
4001;SDS011;2015;48.670;9.060;2022-12-18T14:34:50;56.57;;;25.93;;
4001;SDS011;2015;48.670;9.060;2022-12-18T14:37:27;56.35;;;29.27;;
4001;SDS011;2015;48.670;9.060;2022-12-18T14:40:00;53.50;;;29.73;;
4001;SDS011;2015;48.670;9.060;2022-12-18T14:42:41;53.77;;;29.23;;
4001;SDS011;2015;48.670;9.060;2022-12-18T14:48:17;48.50;;;27.00;;
4001;SDS011;2015;48.670;9.060;2022-12-18T14:53:55;56.85;;;28.50;;
4001;SDS011;2015;48.670;9.060;2022-12-18T15:01:37;52.33;;;29.27;;
4001;SDS011;2015;48.670;9.060;2022-12-18T15:04:27;55.67;;;31.70;;
4001;SDS011;2015;48.670;9.060;2022-12-18T15:07:07;63.05;;;33.78;;
4001;SDS011;2015;48.670;9.060;2022-12-18T15:10:01;59.10;;;31.13;;
4001;SDS011;2015;48.670;9.060;2022-12-18T15:12:34;57.47;;;31.00;;
4001;SDS011;2015;48.670;9.060;2022-12-18T15:18:05;58.10;;;30.33;;
4001;SDS011;2015;48.670;9.060;2022-12-18T15:20:49;62.53;;;33.33;;
4001;SDS011;2015;48.670;9.060;2022-12-18T15:23:27;50.30;;;30.63;;
4001;SDS011;2015;48.670;9.060;2022-12-18T15:26:09;71.50;;;32.00;;
4001;SDS011;2015;48.670;9.060;2022-12-18T15:28:46;69.07;;;34.10;;
4001;SDS011;2015;48.670;9.060;2022-12-18T15:31:31;55.80;;;32.50;;
4001;SDS011;2015;48.670;9.060;2022-12-18T15:36:43;67.00;;;33.07;;
4001;SDS011;2015;48.670;9.060;2022-12-18T15:39:15;58.70;;;33.43;;
4001;SDS011;2015;48.670;9.060;2022-12-18T15:41:47;65.70;;;29.20;;
4001;SDS011;2015;48.670;9.060;2022-12-18T15:44:37;68.50;;;33.00;;
4001;SDS011;2015;48.670;9.060;2022-12-18T15:47:10;57.57;;;29.10;;
4001;SDS011;2015;48.670;9.060;2022-12-18T15:49:43;59.57;;;29.10;;
4001;SDS011;2015;48.670;9.060;2022-12-18T15:52:15;62.60;;;32.90;;
4001;SDS011;2015;48.670;9.060;2022-12-18T15:54:57;68.87;;;31.60;;
4001;SDS011;2015;48.670;9.060;2022-12-18T15:57:47;55.73;;;29.90;;
4001;SDS011;2015;48.670;9.060;2022-12-18T16:00:19;57.00;;;31.03;;
4001;SDS011;2015;48.670;9.060;2022-12-18T16:02:51;64.03;;;27.97;;
4001;SDS011;2015;48.670;9.060;2022-12-18T16:05:23;51.00;;;27.93;;
4001;SDS011;2015;48.670;9.060;2022-12-18T16:07:55;64.33;;;29.63;;
4001;SDS011;2015;48.670;9.060;2022-12-18T16:10:26;58.60;;;28.50;;
4001;SDS011;2015;48.670;9.060;2022-12-18T16:12:58;58.50;;;30.08;;
4001;SDS011;2015;48.670;9.060;2022-12-18T16:15:30;56.17;;;30.17;;
4001;SDS011;2015;48.670;9.060;2022-12-18T16:18:02;54.57;;;28.63;;
4001;SDS011;2015;48.670;9.060;2022-12-18T16:20:34;58.40;;;29.40;;
4001;SDS011;2015;48.670;9.060;2022-12-18T16:23:06;61.07;;;28.17;;
4001;SDS011;2015;48.670;9.060;2022-12-18T16:25:37;53.50;;;29.07;;
4001;SDS011;2015;48.670;9.060;2022-12-18T16:28:09;63.57;;;29.20;;
4001;SDS011;2015;48.670;9.060;2022-12-18T16:30:41;52.03;;;27.17;;
4001;SDS011;2015;48.670;9.060;2022-12-18T16:33:13;54.83;;;29.57;;
4001;SDS011;2015;48.670;9.060;2022-12-18T16:35:51;60.57;;;29.10;;
4001;SDS011;2015;48.670;9.060;2022-12-18T16:38:24;51.60;;;28.60;;
4001;SDS011;2015;48.670;9.060;2022-12-18T16:40:55;51.40;;;27.70;;
4001;SDS011;2015;48.670;9.060;2022-12-18T16:43:46;57.37;;;29.30;;
4001;SDS011;2015;48.670;9.060;2022-12-18T16:46:24;54.83;;;31.30;;
4001;SDS011;2015;48.670;9.060;2022-12-18T16:48:57;58.20;;;30.17;;
4001;SDS011;2015;48.670;9.060;2022-12-18T16:51:32;68.87;;;31.67;;
4001;SDS011;2015;48.670;9.060;2022-12-18T16:54:04;60.77;;;28.87;;
4001;SDS011;2015;48.670;9.060;2022-12-18T16:56:41;65.50;;;34.80;;
4001;SDS011;2015;48.670;9.060;2022-12-18T16:59:14;71.60;;;37.30;;
4001;SDS011;2015;48.670;9.060;2022-12-18T17:01:46;71.13;;;33.97;;
4001;SDS011;2015;48.670;9.060;2022-12-18T17:04:18;58.23;;;30.77;;
4001;SDS011;2015;48.670;9.060;2022-12-18T17:06:50;67.03;;;35.85;;
4001;SDS011;2015;48.670;9.060;2022-12-18T17:09:23;57.73;;;33.30;;
4001;SDS011;2015;48.670;9.060;2022-12-18T17:11:55;54.17;;;30.93;;
4001;SDS011;2015;48.670;9.060;2022-12-18T17:14:27;63.40;;;31.90;;
4001;SDS011;2015;48.670;9.060;2022-12-18T17:16:59;61.77;;;33.10;;
4001;SDS011;2015;48.670;9.060;2022-12-18T17:19:51;71.10;;;35.67;;
4001;SDS011;2015;48.670;9.060;2022-12-18T17:22:23;73.07;;;38.63;;
4001;SDS011;2015;48.670;9.060;2022-12-18T17:24:55;66.17;;;34.47;;
4001;SDS011;2015;48.670;9.060;2022-12-18T17:27:27;78.53;;;39.50;;
4001;SDS011;2015;48.670;9.060;2022-12-18T17:29:59;78.63;;;42.20;;
4001;SDS011;2015;48.670;9.060;2022-12-18T17:32:30;73.80;;;41.83;;
4001;SDS011;2015;48.670;9.060;2022-12-18T17:35:02;70.60;;;37.80;;
4001;SDS011;2015;48.670;9.060;2022-12-18T17:37:37;57.37;;;32.63;;
4001;SDS011;2015;48.670;9.060;2022-12-18T17:40:09;63.27;;;33.87;;
4001;SDS011;2015;48.670;9.060;2022-12-18T17:42:41;59.07;;;34.30;;
4001;SDS011;2015;48.670;9.060;2022-12-18T17:45:13;57.23;;;35.10;;
4001;SDS011;2015;48.670;9.060;2022-12-18T17:47:44;74.57;;;37.50;;
4001;SDS011;2015;48.670;9.060;2022-12-18T17:50:16;65.50;;;36.00;;
4001;SDS011;2015;48.670;9.060;2022-12-18T17:52:48;63.20;;;37.43;;
4001;SDS011;2015;48.670;9.060;2022-12-18T17:55:20;84.60;;;40.50;;
4001;SDS011;2015;48.670;9.060;2022-12-18T17:57:51;70.77;;;35.67;;
4001;SDS011;2015;48.670;9.060;2022-12-18T18:00:23;68.28;;;36.85;;
4001;SDS011;2015;48.670;9.060;2022-12-18T18:02:55;65.73;;;33.60;;
4001;SDS011;2015;48.670;9.060;2022-12-18T18:05:27;62.53;;;33.20;;
4001;SDS011;2015;48.670;9.060;2022-12-18T18:07:59;58.90;;;35.40;;
4001;SDS011;2015;48.670;9.060;2022-12-18T18:10:31;64.33;;;34.33;;